Capitao de Campos, Brazil
Current Conditions -  °F | °C
As of 2:00 PM on Saturday 25 Oct 2014 (Local Time) from SBTE Reporting Station
Scattered Clouds Scattered Clouds  
Wind Chill: 97°   Ceiling: Unl
Heat Index: 98°   Visibility: 6mi
Dew Point: 63°   Wind: 7mph
Humidity: 32%   Direction: 180°S
Pressure: 29.74"   Gusts: NA
Location:  4.46°S, 41.94°W
Report Text: SBTE 251700Z 18006KT 9999 SCT040 36/17 Q1007
Loading
Personal Weather Stations






























Interactive Weather Map
Tropical Storm Tracking
New forecast layout! Learn more

10-Day Weather Forecast

Advertisements
Track Severe Weather on mobile